sensor_id;sensor_type;location;lat;lon;timestamp;P1;durP1;ratioP1;P2;durP2;ratioP2
71196;SDS011;58918;51.652;4.864;2023-05-13T00:00:47;5.10;;;1.77;;
71196;SDS011;58918;51.652;4.864;2023-05-13T00:03:14;4.05;;;1.73;;
71196;SDS011;58918;51.652;4.864;2023-05-13T00:05:42;4.00;;;1.65;;
71196;SDS011;58918;51.652;4.864;2023-05-13T00:08:10;5.22;;;1.60;;
71196;SDS011;58918;51.652;4.864;2023-05-13T00:10:38;4.55;;;1.67;;
71196;SDS011;58918;51.652;4.864;2023-05-13T00:13:05;3.58;;;1.70;;
71196;SDS011;58918;51.652;4.864;2023-05-13T00:15:33;4.53;;;1.90;;
71196;SDS011;58918;51.652;4.864;2023-05-13T00:18:00;4.40;;;1.67;;
71196;SDS011;58918;51.652;4.864;2023-05-13T00:20:27;3.85;;;1.70;;
71196;SDS011;58918;51.652;4.864;2023-05-13T00:22:55;4.28;;;1.85;;
71196;SDS011;58918;51.652;4.864;2023-05-13T00:25:22;4.07;;;1.80;;
71196;SDS011;58918;51.652;4.864;2023-05-13T00:27:49;4.05;;;1.80;;
71196;SDS011;58918;51.652;4.864;2023-05-13T00:30:16;4.25;;;1.92;;
71196;SDS011;58918;51.652;4.864;2023-05-13T00:32:43;3.70;;;1.65;;
71196;SDS011;58918;51.652;4.864;2023-05-13T00:35:10;4.35;;;1.98;;
71196;SDS011;58918;51.652;4.864;2023-05-13T00:37:38;5.18;;;1.90;;
71196;SDS011;58918;51.652;4.864;2023-05-13T00:40:06;3.22;;;1.52;;
71196;SDS011;58918;51.652;4.864;2023-05-13T00:42:37;4.68;;;1.63;;
71196;SDS011;58918;51.652;4.864;2023-05-13T00:45:04;4.80;;;1.60;;
71196;SDS011;58918;51.652;4.864;2023-05-13T00:47:32;4.93;;;1.90;;
71196;SDS011;58918;51.652;4.864;2023-05-13T00:49:59;3.53;;;2.08;;
71196;SDS011;58918;51.652;4.864;2023-05-13T00:52:26;4.28;;;1.95;;
71196;SDS011;58918;51.652;4.864;2023-05-13T00:54:53;4.47;;;1.90;;
71196;SDS011;58918;51.652;4.864;2023-05-13T00:57:20;3.97;;;2.15;;
71196;SDS011;58918;51.652;4.864;2023-05-13T00:59:47;4.97;;;1.65;;
71196;SDS011;58918;51.652;4.864;2023-05-13T01:13:25;5.13;;;2.00;;
71196;SDS011;58918;51.652;4.864;2023-05-13T01:16:00;4.03;;;1.70;;
71196;SDS011;58918;51.652;4.864;2023-05-13T01:18:35;4.60;;;1.83;;
71196;SDS011;58918;51.652;4.864;2023-05-13T01:21:04;3.38;;;1.67;;
71196;SDS011;58918;51.652;4.864;2023-05-13T01:23:32;4.20;;;2.05;;
71196;SDS011;58918;51.652;4.864;2023-05-13T01:25:59;3.88;;;1.70;;
71196;SDS011;58918;51.652;4.864;2023-05-13T01:28:26;3.97;;;1.63;;
71196;SDS011;58918;51.652;4.864;2023-05-13T01:30:54;3.95;;;1.70;;
71196;SDS011;58918;51.652;4.864;2023-05-13T01:33:22;6.18;;;1.70;;
71196;SDS011;58918;51.652;4.864;2023-05-13T01:35:49;4.32;;;1.77;;
71196;SDS011;58918;51.652;4.864;2023-05-13T01:38:17;3.72;;;1.70;;
71196;SDS011;58918;51.652;4.864;2023-05-13T01:40:45;3.22;;;1.52;;
71196;SDS011;58918;51.652;4.864;2023-05-13T01:43:13;3.83;;;1.77;;
71196;SDS011;58918;51.652;4.864;2023-05-13T01:45:40;5.78;;;1.90;;
71196;SDS011;58918;51.652;4.864;2023-05-13T01:48:07;3.72;;;1.60;;
71196;SDS011;58918;51.652;4.864;2023-05-13T01:50:34;4.32;;;1.80;;
71196;SDS011;58918;51.652;4.864;2023-05-13T01:53:01;4.18;;;1.95;;
71196;SDS011;58918;51.652;4.864;2023-05-13T01:55:28;4.32;;;1.65;;
71196;SDS011;58918;51.652;4.864;2023-05-13T01:57:55;5.22;;;1.83;;
71196;SDS011;58918;51.652;4.864;2023-05-13T02:00:23;5.28;;;1.58;;
71196;SDS011;58918;51.652;4.864;2023-05-13T02:02:50;4.43;;;1.70;;
71196;SDS011;58918;51.652;4.864;2023-05-13T02:05:17;4.43;;;1.73;;
71196;SDS011;58918;51.652;4.864;2023-05-13T02:07:44;3.40;;;1.58;;
71196;SDS011;58918;51.652;4.864;2023-05-13T02:10:11;4.88;;;1.80;;
71196;SDS011;58918;51.652;4.864;2023-05-13T02:12:38;5.22;;;1.85;;
71196;SDS011;58918;51.652;4.864;2023-05-13T02:15:06;3.78;;;1.58;;
71196;SDS011;58918;51.652;4.864;2023-05-13T02:17:33;3.75;;;1.80;;
71196;SDS011;58918;51.652;4.864;2023-05-13T02:20:00;3.90;;;1.88;;
71196;SDS011;58918;51.652;4.864;2023-05-13T02:22:27;4.05;;;1.60;;
71196;SDS011;58918;51.652;4.864;2023-05-13T02:24:54;4.53;;;1.45;;
71196;SDS011;58918;51.652;4.864;2023-05-13T02:27:22;3.70;;;1.50;;
71196;SDS011;58918;51.652;4.864;2023-05-13T02:29:49;4.20;;;1.60;;
71196;SDS011;58918;51.652;4.864;2023-05-13T02:32:16;3.30;;;1.55;;
71196;SDS011;58918;51.652;4.864;2023-05-13T02:34:43;4.32;;;1.80;;
71196;SDS011;58918;51.652;4.864;2023-05-13T02:37:10;3.33;;;1.80;;
71196;SDS011;58918;51.652;4.864;2023-05-13T02:39:37;3.83;;;1.60;;
71196;SDS011;58918;51.652;4.864;2023-05-13T02:42:05;3.58;;;1.80;;
71196;SDS011;58918;51.652;4.864;2023-05-13T02:44:32;3.85;;;1.92;;
71196;SDS011;58918;51.652;4.864;2023-05-13T02:46:59;4.45;;;2.00;;
71196;SDS011;58918;51.652;4.864;2023-05-13T02:49:26;4.30;;;1.70;;
71196;SDS011;58918;51.652;4.864;2023-05-13T02:51:53;4.05;;;1.70;;
71196;SDS011;58918;51.652;4.864;2023-05-13T02:54:20;6.50;;;1.73;;
71196;SDS011;58918;51.652;4.864;2023-05-13T02:56:48;3.80;;;1.70;;
71196;SDS011;58918;51.652;4.864;2023-05-13T02:59:15;3.70;;;1.60;;
71196;SDS011;58918;51.652;4.864;2023-05-13T03:01:42;3.97;;;1.70;;
71196;SDS011;58918;51.652;4.864;2023-05-13T03:04:09;3.78;;;1.65;;
71196;SDS011;58918;51.652;4.864;2023-05-13T03:06:37;4.40;;;2.00;;
71196;SDS011;58918;51.652;4.864;2023-05-13T03:09:04;3.92;;;1.63;;
71196;SDS011;58918;51.652;4.864;2023-05-13T03:11:31;3.72;;;1.65;;
71196;SDS011;58918;51.652;4.864;2023-05-13T03:13:58;4.90;;;1.60;;
71196;SDS011;58918;51.652;4.864;2023-05-13T03:16:25;8.25;;;1.60;;
71196;SDS011;58918;51.652;4.864;2023-05-13T03:18:52;5.05;;;2.13;;
71196;SDS011;58918;51.652;4.864;2023-05-13T03:21:20;4.43;;;1.98;;
71196;SDS011;58918;51.652;4.864;2023-05-13T03:23:47;3.90;;;1.73;;
71196;SDS011;58918;51.652;4.864;2023-05-13T03:26:14;4.50;;;1.65;;
71196;SDS011;58918;51.652;4.864;2023-05-13T03:28:41;3.40;;;1.50;;
71196;SDS011;58918;51.652;4.864;2023-05-13T03:31:08;3.55;;;1.60;;
71196;SDS011;58918;51.652;4.864;2023-05-13T03:33:36;4.40;;;1.50;;
71196;SDS011;58918;51.652;4.864;2023-05-13T03:36:03;4.70;;;1.58;;
71196;SDS011;58918;51.652;4.864;2023-05-13T03:38:31;3.72;;;1.95;;
71196;SDS011;58918;51.652;4.864;2023-05-13T03:40:58;3.67;;;1.80;;
71196;SDS011;58918;51.652;4.864;2023-05-13T03:43:25;3.92;;;1.40;;
71196;SDS011;58918;51.652;4.864;2023-05-13T03:45:52;7.50;;;1.75;;
71196;SDS011;58918;51.652;4.864;2023-05-13T03:48:19;9.15;;;2.17;;
71196;SDS011;58918;51.652;4.864;2023-05-13T03:50:46;4.15;;;1.80;;
71196;SDS011;58918;51.652;4.864;2023-05-13T03:53:14;3.60;;;1.63;;
71196;SDS011;58918;51.652;4.864;2023-05-13T03:55:42;3.90;;;1.83;;
71196;SDS011;58918;51.652;4.864;2023-05-13T03:58:09;4.45;;;1.50;;
71196;SDS011;58918;51.652;4.864;2023-05-13T04:00:38;3.40;;;1.42;;
71196;SDS011;58918;51.652;4.864;2023-05-13T04:03:05;4.55;;;1.70;;
71196;SDS011;58918;51.652;4.864;2023-05-13T04:05:32;4.22;;;1.90;;
71196;SDS011;58918;51.652;4.864;2023-05-13T04:08:00;4.90;;;2.38;;
71196;SDS011;58918;51.652;4.864;2023-05-13T04:10:27;3.92;;;1.67;;
71196;SDS011;58918;51.652;4.864;2023-05-13T04:12:54;5.07;;;1.58;;
71196;SDS011;58918;51.652;4.864;2023-05-13T04:15:22;3.72;;;1.88;;
71196;SDS011;58918;51.652;4.864;2023-05-13T04:17:50;4.72;;;1.75;;
71196;SDS011;58918;51.652;4.864;2023-05-13T04:20:17;3.22;;;1.42;;
71196;SDS011;58918;51.652;4.864;2023-05-13T04:22:45;3.63;;;1.60;;
71196;SDS011;58918;51.652;4.864;2023-05-13T04:25:12;4.28;;;1.90;;
71196;SDS011;58918;51.652;4.864;2023-05-13T04:27:39;4.97;;;1.63;;
71196;SDS011;58918;51.652;4.864;2023-05-13T04:30:07;3.33;;;1.55;;
71196;SDS011;58918;51.652;4.864;2023-05-13T04:32:34;3.67;;;1.67;;
71196;SDS011;58918;51.652;4.864;2023-05-13T04:35:01;7.93;;;1.80;;
71196;SDS011;58918;51.652;4.864;2023-05-13T04:37:28;4.82;;;1.65;;
71196;SDS011;58918;51.652;4.864;2023-05-13T04:39:55;5.78;;;1.65;;
71196;SDS011;58918;51.652;4.864;2023-05-13T04:42:23;4.10;;;1.80;;
71196;SDS011;58918;51.652;4.864;2023-05-13T04:44:50;3.70;;;1.90;;
71196;SDS011;58918;51.652;4.864;2023-05-13T04:47:17;4.18;;;1.48;;
71196;SDS011;58918;51.652;4.864;2023-05-13T04:49:45;4.20;;;1.70;;
71196;SDS011;58918;51.652;4.864;2023-05-13T04:52:12;4.93;;;1.80;;
71196;SDS011;58918;51.652;4.864;2023-05-13T04:54:39;3.97;;;1.73;;
71196;SDS011;58918;51.652;4.864;2023-05-13T04:57:07;5.68;;;2.00;;
71196;SDS011;58918;51.652;4.864;2023-05-13T04:59:34;7.07;;;1.80;;
71196;SDS011;58918;51.652;4.864;2023-05-13T05:02:02;3.40;;;1.50;;
71196;SDS011;58918;51.652;4.864;2023-05-13T05:04:29;3.75;;;1.85;;
71196;SDS011;58918;51.652;4.864;2023-05-13T05:06:56;11.63;;;1.95;;
71196;SDS011;58918;51.652;4.864;2023-05-13T05:09:23;7.68;;;1.90;;
71196;SDS011;58918;51.652;4.864;2023-05-13T05:11:50;20.17;;;2.25;;
71196;SDS011;58918;51.652;4.864;2023-05-13T05:14:17;6.40;;;1.67;;
71196;SDS011;58918;51.652;4.864;2023-05-13T05:16:45;6.18;;;1.92;;
71196;SDS011;58918;51.652;4.864;2023-05-13T05:19:12;6.35;;;1.80;;
71196;SDS011;58918;51.652;4.864;2023-05-13T05:21:39;9.30;;;2.22;;
71196;SDS011;58918;51.652;4.864;2023-05-13T05:24:07;6.15;;;2.13;;
71196;SDS011;58918;51.652;4.864;2023-05-13T05:26:34;5.45;;;1.70;;
71196;SDS011;58918;51.652;4.864;2023-05-13T05:29:01;5.55;;;2.22;;
71196;SDS011;58918;51.652;4.864;2023-05-13T05:31:28;8.98;;;3.97;;
71196;SDS011;58918;51.652;4.864;2023-05-13T05:33:55;8.98;;;4.90;;
71196;SDS011;58918;51.652;4.864;2023-05-13T05:36:24;8.25;;;4.60;;
71196;SDS011;58918;51.652;4.864;2023-05-13T05:38:51;8.98;;;4.93;;
71196;SDS011;58918;51.652;4.864;2023-05-13T05:41:18;9.88;;;5.30;;
71196;SDS011;58918;51.652;4.864;2023-05-13T05:43:46;9.45;;;5.07;;
71196;SDS011;58918;51.652;4.864;2023-05-13T05:46:14;9.65;;;4.75;;
71196;SDS011;58918;51.652;4.864;2023-05-13T05:48:41;9.52;;;5.28;;
71196;SDS011;58918;51.652;4.864;2023-05-13T05:51:09;9.60;;;5.05;;
71196;SDS011;58918;51.652;4.864;2023-05-13T05:53:36;8.75;;;5.55;;
71196;SDS011;58918;51.652;4.864;2023-05-13T05:56:05;10.18;;;5.13;;
71196;SDS011;58918;51.652;4.864;2023-05-13T05:58:33;11.73;;;5.20;;
71196;SDS011;58918;51.652;4.864;2023-05-13T06:01:00;11.35;;;5.40;;
71196;SDS011;58918;51.652;4.864;2023-05-13T06:03:27;11.05;;;5.20;;
71196;SDS011;58918;51.652;4.864;2023-05-13T06:05:54;8.63;;;5.13;;
71196;SDS011;58918;51.652;4.864;2023-05-13T06:08:21;10.40;;;5.38;;
71196;SDS011;58918;51.652;4.864;2023-05-13T06:10:58;9.00;;;5.07;;
71196;SDS011;58918;51.652;4.864;2023-05-13T06:13:25;9.48;;;5.18;;
71196;SDS011;58918;51.652;4.864;2023-05-13T06:15:52;10.57;;;5.18;;
71196;SDS011;58918;51.652;4.864;2023-05-13T06:18:19;10.85;;;5.20;;
71196;SDS011;58918;51.652;4.864;2023-05-13T06:20:48;10.18;;;5.20;;
71196;SDS011;58918;51.652;4.864;2023-05-13T06:23:15;12.38;;;5.50;;
71196;SDS011;58918;51.652;4.864;2023-05-13T06:25:42;9.15;;;4.95;;
71196;SDS011;58918;51.652;4.864;2023-05-13T06:28:09;8.23;;;4.47;;
71196;SDS011;58918;51.652;4.864;2023-05-13T06:30:37;9.45;;;4.70;;
71196;SDS011;58918;51.652;4.864;2023-05-13T06:33:04;13.32;;;5.07;;
71196;SDS011;58918;51.652;4.864;2023-05-13T06:35:35;10.68;;;4.68;;
71196;SDS011;58918;51.652;4.864;2023-05-13T06:38:03;8.43;;;4.22;;
71196;SDS011;58918;51.652;4.864;2023-05-13T06:40:31;8.00;;;4.90;;
71196;SDS011;58918;51.652;4.864;2023-05-13T06:42:58;9.85;;;4.22;;
71196;SDS011;58918;51.652;4.864;2023-05-13T06:45:26;11.20;;;4.22;;
71196;SDS011;58918;51.652;4.864;2023-05-13T06:47:54;10.00;;;4.88;;
71196;SDS011;58918;51.652;4.864;2023-05-13T06:50:21;7.28;;;4.38;;
71196;SDS011;58918;51.652;4.864;2023-05-13T06:52:49;11.45;;;5.13;;
71196;SDS011;58918;51.652;4.864;2023-05-13T06:55:16;9.23;;;4.90;;
71196;SDS011;58918;51.652;4.864;2023-05-13T06:57:44;10.10;;;5.10;;
71196;SDS011;58918;51.652;4.864;2023-05-13T07:00:13;11.02;;;4.95;;
71196;SDS011;58918;51.652;4.864;2023-05-13T07:02:40;8.90;;;4.88;;
71196;SDS011;58918;51.652;4.864;2023-05-13T07:05:08;11.63;;;5.03;;
71196;SDS011;58918;51.652;4.864;2023-05-13T07:07:36;10.15;;;5.10;;
71196;SDS011;58918;51.652;4.864;2023-05-13T07:10:04;12.48;;;5.07;;
71196;SDS011;58918;51.652;4.864;2023-05-13T07:12:31;8.07;;;4.60;;
71196;SDS011;58918;51.652;4.864;2023-05-13T07:14:58;9.05;;;4.78;;
71196;SDS011;58918;51.652;4.864;2023-05-13T07:17:25;10.05;;;4.47;;
71196;SDS011;58918;51.652;4.864;2023-05-13T07:19:53;10.65;;;4.80;;
71196;SDS011;58918;51.652;4.864;2023-05-13T07:22:20;8.13;;;4.70;;
71196;SDS011;58918;51.652;4.864;2023-05-13T07:24:47;10.60;;;4.32;;
71196;SDS011;58918;51.652;4.864;2023-05-13T07:27:14;9.63;;;4.47;;
71196;SDS011;58918;51.652;4.864;2023-05-13T07:29:42;6.80;;;4.32;;
71196;SDS011;58918;51.652;4.864;2023-05-13T07:32:09;7.72;;;4.53;;
71196;SDS011;58918;51.652;4.864;2023-05-13T07:34:36;7.15;;;4.20;;
71196;SDS011;58918;51.652;4.864;2023-05-13T07:37:04;10.50;;;4.50;;
71196;SDS011;58918;51.652;4.864;2023-05-13T07:39:31;8.52;;;4.57;;
71196;SDS011;58918;51.652;4.864;2023-05-13T07:41:58;7.55;;;4.55;;
71196;SDS011;58918;51.652;4.864;2023-05-13T07:44:25;8.93;;;4.13;;
71196;SDS011;58918;51.652;4.864;2023-05-13T07:46:53;9.98;;;4.43;;
71196;SDS011;58918;51.652;4.864;2023-05-13T07:49:20;9.20;;;4.75;;
71196;SDS011;58918;51.652;4.864;2023-05-13T07:51:47;7.93;;;3.88;;
71196;SDS011;58918;51.652;4.864;2023-05-13T07:54:14;8.18;;;4.13;;
71196;SDS011;58918;51.652;4.864;2023-05-13T07:56:41;10.32;;;4.72;;
71196;SDS011;58918;51.652;4.864;2023-05-13T07:59:09;9.13;;;3.83;;
71196;SDS011;58918;51.652;4.864;2023-05-13T08:01:36;8.23;;;4.18;;
71196;SDS011;58918;51.652;4.864;2023-05-13T08:04:03;8.55;;;4.07;;
71196;SDS011;58918;51.652;4.864;2023-05-13T08:06:31;8.98;;;4.10;;
71196;SDS011;58918;51.652;4.864;2023-05-13T08:08:58;7.80;;;4.30;;
71196;SDS011;58918;51.652;4.864;2023-05-13T08:11:27;6.78;;;3.88;;
71196;SDS011;58918;51.652;4.864;2023-05-13T08:13:54;6.60;;;4.00;;
71196;SDS011;58918;51.652;4.864;2023-05-13T08:16:21;8.20;;;4.20;;
71196;SDS011;58918;51.652;4.864;2023-05-13T08:18:48;10.27;;;3.83;;
71196;SDS011;58918;51.652;4.864;2023-05-13T08:21:16;8.10;;;4.00;;
71196;SDS011;58918;51.652;4.864;2023-05-13T08:23:43;9.35;;;4.07;;
71196;SDS011;58918;51.652;4.864;2023-05-13T08:26:11;7.60;;;3.95;;
71196;SDS011;58918;51.652;4.864;2023-05-13T08:28:38;6.88;;;3.92;;
71196;SDS011;58918;51.652;4.864;2023-05-13T08:33:34;7.55;;;3.92;;
71196;SDS011;58918;51.652;4.864;2023-05-13T08:36:02;6.80;;;4.05;;
71196;SDS011;58918;51.652;4.864;2023-05-13T08:38:29;7.38;;;4.38;;
71196;SDS011;58918;51.652;4.864;2023-05-13T08:40:58;7.90;;;4.28;;
71196;SDS011;58918;51.652;4.864;2023-05-13T08:43:26;10.20;;;4.75;;
71196;SDS011;58918;51.652;4.864;2023-05-13T08:45:53;7.82;;;3.97;;
71196;SDS011;58918;51.652;4.864;2023-05-13T08:48:22;6.88;;;3.95;;
71196;SDS011;58918;51.652;4.864;2023-05-13T08:50:49;9.00;;;4.35;;
71196;SDS011;58918;51.652;4.864;2023-05-13T08:53:17;11.07;;;4.30;;
71196;SDS011;58918;51.652;4.864;2023-05-13T08:55:44;8.43;;;3.92;;
71196;SDS011;58918;51.652;4.864;2023-05-13T08:58:11;9.65;;;4.57;;
71196;SDS011;58918;51.652;4.864;2023-05-13T09:00:38;11.63;;;5.55;;
71196;SDS011;58918;51.652;4.864;2023-05-13T09:03:06;10.52;;;4.40;;
71196;SDS011;58918;51.652;4.864;2023-05-13T09:05:34;6.78;;;3.88;;
71196;SDS011;58918;51.652;4.864;2023-05-13T09:08:05;9.23;;;4.15;;
71196;SDS011;58918;51.652;4.864;2023-05-13T09:10:36;9.60;;;4.10;;
71196;SDS011;58918;51.652;4.864;2023-05-13T09:13:03;10.10;;;4.50;;
71196;SDS011;58918;51.652;4.864;2023-05-13T09:15:31;9.68;;;4.22;;
71196;SDS011;58918;51.652;4.864;2023-05-13T09:18:05;8.00;;;4.30;;
71196;SDS011;58918;51.652;4.864;2023-05-13T09:20:33;8.75;;;4.03;;
71196;SDS011;58918;51.652;4.864;2023-05-13T09:23:04;6.95;;;3.78;;
71196;SDS011;58918;51.652;4.864;2023-05-13T09:25:32;4.68;;;2.72;;
71196;SDS011;58918;51.652;4.864;2023-05-13T09:28:00;8.18;;;2.97;;
71196;SDS011;58918;51.652;4.864;2023-05-13T09:30:28;5.60;;;2.85;;
71196;SDS011;58918;51.652;4.864;2023-05-13T09:33:12;5.63;;;2.95;;
71196;SDS011;58918;51.652;4.864;2023-05-13T09:35:40;6.38;;;3.38;;
71196;SDS011;58918;51.652;4.864;2023-05-13T09:38:15;5.75;;;3.17;;
71196;SDS011;58918;51.652;4.864;2023-05-13T09:40:51;7.25;;;3.08;;
71196;SDS011;58918;51.652;4.864;2023-05-13T09:43:22;6.50;;;3.28;;
71196;SDS011;58918;51.652;4.864;2023-05-13T09:45:57;7.10;;;3.50;;
71196;SDS011;58918;51.652;4.864;2023-05-13T09:48:27;10.80;;;4.60;;
71196;SDS011;58918;51.652;4.864;2023-05-13T09:50:54;6.43;;;3.40;;
71196;SDS011;58918;51.652;4.864;2023-05-13T09:53:24;6.18;;;3.55;;
71196;SDS011;58918;51.652;4.864;2023-05-13T09:55:52;7.80;;;3.55;;
71196;SDS011;58918;51.652;4.864;2023-05-13T09:58:20;5.47;;;3.28;;
71196;SDS011;58918;51.652;4.864;2023-05-13T10:00:47;5.72;;;3.67;;
71196;SDS011;58918;51.652;4.864;2023-05-13T10:03:14;6.75;;;3.58;;
71196;SDS011;58918;51.652;4.864;2023-05-13T10:05:42;8.65;;;3.42;;
71196;SDS011;58918;51.652;4.864;2023-05-13T10:08:10;6.65;;;3.05;;
71196;SDS011;58918;51.652;4.864;2023-05-13T10:10:37;9.80;;;4.03;;
71196;SDS011;58918;51.652;4.864;2023-05-13T10:13:07;9.77;;;4.07;;
71196;SDS011;58918;51.652;4.864;2023-05-13T10:15:34;7.93;;;4.10;;
71196;SDS011;58918;51.652;4.864;2023-05-13T10:18:01;10.10;;;4.28;;
71196;SDS011;58918;51.652;4.864;2023-05-13T10:20:32;7.22;;;3.90;;
71196;SDS011;58918;51.652;4.864;2023-05-13T10:22:59;10.95;;;4.35;;
71196;SDS011;58918;51.652;4.864;2023-05-13T10:25:27;7.93;;;4.43;;
71196;SDS011;58918;51.652;4.864;2023-05-13T10:27:55;7.00;;;3.80;;
71196;SDS011;58918;51.652;4.864;2023-05-13T10:30:23;10.60;;;4.10;;
71196;SDS011;58918;51.652;4.864;2023-05-13T10:32:51;7.25;;;3.67;;
71196;SDS011;58918;51.652;4.864;2023-05-13T10:35:19;11.88;;;3.75;;
71196;SDS011;58918;51.652;4.864;2023-05-13T10:42:48;11.68;;;4.70;;
71196;SDS011;58918;51.652;4.864;2023-05-13T10:45:19;9.43;;;4.22;;
71196;SDS011;58918;51.652;4.864;2023-05-13T10:47:52;15.38;;;4.55;;
71196;SDS011;58918;51.652;4.864;2023-05-13T10:50:22;7.78;;;3.50;;
71196;SDS011;58918;51.652;4.864;2023-05-13T10:52:49;7.10;;;3.90;;
71196;SDS011;58918;51.652;4.864;2023-05-13T10:55:19;6.68;;;3.25;;
71196;SDS011;58918;51.652;4.864;2023-05-13T10:58:06;7.47;;;3.72;;
71196;SDS011;58918;51.652;4.864;2023-05-13T11:00:35;7.60;;;3.75;;
71196;SDS011;58918;51.652;4.864;2023-05-13T11:03:10;8.40;;;4.07;;
71196;SDS011;58918;51.652;4.864;2023-05-13T11:05:39;8.27;;;4.18;;
71196;SDS011;58918;51.652;4.864;2023-05-13T11:08:06;10.73;;;3.72;;
71196;SDS011;58918;51.652;4.864;2023-05-13T11:10:33;7.43;;;3.90;;
71196;SDS011;58918;51.652;4.864;2023-05-13T11:13:08;6.13;;;3.63;;
71196;SDS011;58918;51.652;4.864;2023-05-13T11:15:55;8.00;;;4.20;;
71196;SDS011;58918;51.652;4.864;2023-05-13T11:18:28;7.85;;;3.70;;
71196;SDS011;58918;51.652;4.864;2023-05-13T11:21:00;7.70;;;4.30;;
71196;SDS011;58918;51.652;4.864;2023-05-13T11:23:31;9.75;;;4.13;;
71196;SDS011;58918;51.652;4.864;2023-05-13T11:26:12;10.07;;;4.88;;
71196;SDS011;58918;51.652;4.864;2023-05-13T11:29:15;7.47;;;4.50;;
71196;SDS011;58918;51.652;4.864;2023-05-13T11:31:48;6.90;;;4.25;;
71196;SDS011;58918;51.652;4.864;2023-05-13T11:34:18;6.72;;;4.13;;
71196;SDS011;58918;51.652;4.864;2023-05-13T11:36:46;7.85;;;4.10;;
71196;SDS011;58918;51.652;4.864;2023-05-13T11:39:15;10.63;;;3.72;;
71196;SDS011;58918;51.652;4.864;2023-05-13T11:41:47;7.43;;;3.60;;
71196;SDS011;58918;51.652;4.864;2023-05-13T11:44:18;10.30;;;4.43;;
71196;SDS011;58918;51.652;4.864;2023-05-13T11:51:55;8.45;;;5.10;;
71196;SDS011;58918;51.652;4.864;2023-05-13T11:54:24;12.93;;;5.10;;
71196;SDS011;58918;51.652;4.864;2023-05-13T11:56:52;8.65;;;5.65;;
71196;SDS011;58918;51.652;4.864;2023-05-13T11:59:19;12.10;;;5.72;;
71196;SDS011;58918;51.652;4.864;2023-05-13T12:01:56;12.25;;;5.90;;
71196;SDS011;58918;51.652;4.864;2023-05-13T12:04:26;10.00;;;5.10;;
71196;SDS011;58918;51.652;4.864;2023-05-13T12:06:54;10.65;;;5.25;;
71196;SDS011;58918;51.652;4.864;2023-05-13T12:09:21;11.50;;;6.22;;
71196;SDS011;58918;51.652;4.864;2023-05-13T12:11:51;10.48;;;6.43;;
71196;SDS011;58918;51.652;4.864;2023-05-13T12:14:19;11.32;;;6.20;;
71196;SDS011;58918;51.652;4.864;2023-05-13T12:16:46;11.00;;;6.35;;
71196;SDS011;58918;51.652;4.864;2023-05-13T12:19:14;10.90;;;6.45;;
71196;SDS011;58918;51.652;4.864;2023-05-13T12:21:41;11.57;;;5.90;;
71196;SDS011;58918;51.652;4.864;2023-05-13T12:24:20;11.70;;;6.10;;
71196;SDS011;58918;51.652;4.864;2023-05-13T12:26:48;12.60;;;6.47;;
71196;SDS011;58918;51.652;4.864;2023-05-13T12:29:15;11.57;;;6.05;;
71196;SDS011;58918;51.652;4.864;2023-05-13T12:31:50;9.75;;;5.40;;
71196;SDS011;58918;51.652;4.864;2023-05-13T12:34:29;12.38;;;6.22;;
71196;SDS011;58918;51.652;4.864;2023-05-13T12:37:07;11.10;;;6.30;;
71196;SDS011;58918;51.652;4.864;2023-05-13T12:39:35;12.18;;;5.43;;
71196;SDS011;58918;51.652;4.864;2023-05-13T12:42:02;8.45;;;5.28;;
71196;SDS011;58918;51.652;4.864;2023-05-13T12:44:30;8.80;;;5.30;;
71196;SDS011;58918;51.652;4.864;2023-05-13T12:46:59;13.80;;;6.18;;
71196;SDS011;58918;51.652;4.864;2023-05-13T12:49:27;11.27;;;5.88;;
71196;SDS011;58918;51.652;4.864;2023-05-13T12:51:54;13.55;;;6.22;;
71196;SDS011;58918;51.652;4.864;2023-05-13T12:54:22;8.88;;;5.35;;
71196;SDS011;58918;51.652;4.864;2023-05-13T12:56:49;9.55;;;5.40;;
71196;SDS011;58918;51.652;4.864;2023-05-13T12:59:16;10.60;;;5.65;;
71196;SDS011;58918;51.652;4.864;2023-05-13T13:01:44;11.20;;;6.05;;
71196;SDS011;58918;51.652;4.864;2023-05-13T13:04:13;13.38;;;6.13;;
71196;SDS011;58918;51.652;4.864;2023-05-13T13:06:42;8.95;;;5.63;;
71196;SDS011;58918;51.652;4.864;2023-05-13T13:09:09;8.93;;;5.20;;
71196;SDS011;58918;51.652;4.864;2023-05-13T13:11:36;10.60;;;5.60;;
71196;SDS011;58918;51.652;4.864;2023-05-13T13:14:04;11.73;;;5.72;;
71196;SDS011;58918;51.652;4.864;2023-05-13T13:16:31;8.95;;;5.75;;
71196;SDS011;58918;51.652;4.864;2023-05-13T13:18:59;7.85;;;5.28;;
71196;SDS011;58918;51.652;4.864;2023-05-13T13:21:27;8.63;;;5.15;;
71196;SDS011;58918;51.652;4.864;2023-05-13T13:23:54;10.95;;;5.20;;
71196;SDS011;58918;51.652;4.864;2023-05-13T13:26:21;11.32;;;4.90;;
71196;SDS011;58918;51.652;4.864;2023-05-13T13:28:48;10.80;;;5.05;;
71196;SDS011;58918;51.652;4.864;2023-05-13T13:31:16;9.75;;;5.00;;
71196;SDS011;58918;51.652;4.864;2023-05-13T13:33:43;9.52;;;4.32;;
71196;SDS011;58918;51.652;4.864;2023-05-13T13:36:10;9.43;;;4.72;;
71196;SDS011;58918;51.652;4.864;2023-05-13T13:38:37;9.82;;;5.35;;
71196;SDS011;58918;51.652;4.864;2023-05-13T13:41:04;9.77;;;5.13;;
71196;SDS011;58918;51.652;4.864;2023-05-13T13:43:31;8.80;;;5.43;;
71196;SDS011;58918;51.652;4.864;2023-05-13T13:45:59;9.93;;;4.78;;
71196;SDS011;58918;51.652;4.864;2023-05-13T13:48:26;12.20;;;5.22;;
71196;SDS011;58918;51.652;4.864;2023-05-13T13:50:53;9.65;;;5.40;;
71196;SDS011;58918;51.652;4.864;2023-05-13T13:53:20;11.15;;;5.25;;
71196;SDS011;58918;51.652;4.864;2023-05-13T13:55:47;8.63;;;4.45;;
71196;SDS011;58918;51.652;4.864;2023-05-13T13:58:15;9.30;;;4.38;;
71196;SDS011;58918;51.652;4.864;2023-05-13T14:00:42;8.88;;;4.40;;
71196;SDS011;58918;51.652;4.864;2023-05-13T14:03:10;7.63;;;4.20;;
71196;SDS011;58918;51.652;4.864;2023-05-13T14:05:37;10.55;;;4.43;;
71196;SDS011;58918;51.652;4.864;2023-05-13T14:08:04;11.80;;;5.03;;
71196;SDS011;58918;51.652;4.864;2023-05-13T14:10:33;9.38;;;4.20;;
71196;SDS011;58918;51.652;4.864;2023-05-13T14:13:00;10.80;;;4.68;;
71196;SDS011;58918;51.652;4.864;2023-05-13T14:15:27;10.55;;;4.20;;
71196;SDS011;58918;51.652;4.864;2023-05-13T14:17:56;7.95;;;4.53;;
71196;SDS011;58918;51.652;4.864;2023-05-13T14:20:23;6.65;;;4.00;;
71196;SDS011;58918;51.652;4.864;2023-05-13T14:22:50;6.20;;;4.10;;
71196;SDS011;58918;51.652;4.864;2023-05-13T14:25:17;8.15;;;4.43;;
71196;SDS011;58918;51.652;4.864;2023-05-13T14:27:45;7.97;;;4.03;;
71196;SDS011;58918;51.652;4.864;2023-05-13T14:30:12;8.73;;;4.15;;
71196;SDS011;58918;51.652;4.864;2023-05-13T14:32:39;8.23;;;3.90;;
71196;SDS011;58918;51.652;4.864;2023-05-13T14:35:10;7.70;;;4.20;;
71196;SDS011;58918;51.652;4.864;2023-05-13T14:37:38;8.25;;;3.90;;
71196;SDS011;58918;51.652;4.864;2023-05-13T14:40:05;8.10;;;3.78;;
71196;SDS011;58918;51.652;4.864;2023-05-13T14:42:32;7.38;;;3.72;;
71196;SDS011;58918;51.652;4.864;2023-05-13T14:44:59;10.45;;;4.18;;
71196;SDS011;58918;51.652;4.864;2023-05-13T14:47:27;7.40;;;3.95;;
71196;SDS011;58918;51.652;4.864;2023-05-13T14:49:54;6.72;;;3.40;;
71196;SDS011;58918;51.652;4.864;2023-05-13T14:52:21;8.10;;;3.90;;
71196;SDS011;58918;51.652;4.864;2023-05-13T14:54:48;7.65;;;2.85;;
71196;SDS011;58918;51.652;4.864;2023-05-13T14:57:16;4.90;;;3.25;;
71196;SDS011;58918;51.652;4.864;2023-05-13T14:59:43;6.28;;;2.97;;
71196;SDS011;58918;51.652;4.864;2023-05-13T15:02:10;6.15;;;3.38;;
71196;SDS011;58918;51.652;4.864;2023-05-13T15:04:39;7.85;;;3.47;;
71196;SDS011;58918;51.652;4.864;2023-05-13T15:07:06;5.32;;;3.28;;
71196;SDS011;58918;51.652;4.864;2023-05-13T15:09:33;6.82;;;3.17;;
71196;SDS011;58918;51.652;4.864;2023-05-13T15:12:00;7.65;;;3.65;;
71196;SDS011;58918;51.652;4.864;2023-05-13T15:14:28;6.70;;;3.65;;